Alton, New Hampshire
Current Conditions -  °F | °C
As of 6:15 PM on Friday 28 Nov 2014 (Local Time) from KLCI Reporting Station
Broken Clouds Broken Clouds  
Wind Chill: 19°   Ceiling: 5000
Heat Index: 25°   Visibility: 10mi
Dew Point: 18°   Wind: 5mph
Humidity: 74%   Direction: 250°WSW
Pressure: 30.08"   Gusts: NA
Location:  43.45°N, 71.22°W
Report Text: KLCI 282315Z AUTO 25004KT 10SM FEW044 BKN050 M04/M08 A3008 RMK AO1
Loading
Personal Weather Stations






























Interactive Weather Map New forecast layout! Learn more

10-Day Weather Forecast

Advertisements
Track Severe Weather on mobile